Time;durP1;ratioP1;P1;durP2;ratioP2;P2;SDS_P1;SDS_P2;PMS_P1;PMS_P2;Temp;Humidity;BMP_temperature;BMP_pressure;BME280_temperature;BME280_humidity;BME280_pressure;Samples;Min_cycle;Max_cycle;Signal;HPM_P1;HPM_P2
2020/12/26 00:02:22;;;;;;;4.60;1.50;;;4.60;99.90;;;;;;5045916;28;37037;-77
2020/12/26 00:04:49;;;;;;;4.03;1.50;;;4.60;99.90;;;;;;5046025;28;39865;-76
2020/12/26 00:07:15;;;;;;;5.33;1.47;;;4.70;99.90;;;;;;5045624;28;39492;-76
2020/12/26 00:09:41;;;;;;;9.63;1.90;;;4.60;99.90;;;;;;5045822;28;39194;-76
2020/12/26 00:12:07;;;;;;;5.17;2.10;;;4.70;99.90;;;;;;5045433;28;37199;-76
2020/12/26 00:14:33;;;;;;;8.20;2.13;;;4.60;99.90;;;;;;5046419;28;38771;-77
2020/12/26 00:17:01;;;;;;;7.07;2.20;;;4.60;99.90;;;;;;5049875;28;38750;-77
2020/12/26 00:19:28;;;;;;;7.60;2.07;;;4.60;99.90;;;;;;5060699;28;47961;-77
2020/12/26 00:21:54;;;;;;;5.60;1.80;;;4.60;99.90;;;;;;5060731;28;37431;-77
2020/12/26 00:24:20;;;;;;;2.40;1.30;;;4.70;99.90;;;;;;5047265;28;39048;-76
2020/12/26 00:26:46;;;;;;;6.03;2.03;;;4.70;99.90;;;;;;5043202;28;39552;-77
2020/12/26 00:29:12;;;;;;;6.27;2.07;;;4.60;99.90;;;;;;5044703;28;39785;-77
2020/12/26 00:31:38;;;;;;;5.53;1.40;;;4.60;99.90;;;;;;5058611;28;36716;-77
2020/12/26 00:34:05;;;;;;;7.17;1.67;;;4.60;99.90;;;;;;5044946;28;38901;-77
2020/12/26 00:36:31;;;;;;;5.60;1.57;;;4.60;99.90;;;;;;5061468;28;39541;-77
2020/12/26 00:38:57;;;;;;;6.97;1.60;;;4.60;99.90;;;;;;5061016;28;37319;-76
2020/12/26 00:41:23;;;;;;;6.23;1.60;;;4.60;99.90;;;;;;5055852;28;37476;-77
2020/12/26 00:43:49;;;;;;;6.57;1.57;;;4.60;99.90;;;;;;5042725;28;39033;-76
2020/12/26 00:46:20;;;;;;;4.93;1.60;;;4.60;99.90;;;;;;5059067;28;37530;-77
2020/12/26 00:48:46;;;;;;;4.53;1.00;;;4.60;99.90;;;;;;5038826;28;40106;-77
2020/12/26 00:51:12;;;;;;;1.80;0.90;;;4.60;99.90;;;;;;5045707;28;38804;-76
2020/12/26 00:53:39;;;;;;;2.27;0.73;;;4.60;99.90;;;;;;5046400;28;42960;-77
2020/12/26 00:56:09;;;;;;;7.63;1.20;;;4.60;99.90;;;;;;5044849;28;39119;-76
2020/12/26 00:58:35;;;;;;;5.23;1.30;;;4.60;99.90;;;;;;5057056;28;38216;-77
2020/12/26 01:01:03;;;;;;;2.43;0.70;;;4.60;99.90;;;;;;5046316;28;37554;-77
2020/12/26 01:03:29;;;;;;;6.93;1.20;;;4.50;99.90;;;;;;5046913;28;38928;-76
2020/12/26 01:05:55;;;;;;;3.90;1.10;;;4.50;99.90;;;;;;5050886;28;39980;-76
2020/12/26 01:08:27;;;;;;;5.23;0.70;;;4.50;99.90;;;;;;5060573;28;41281;-77
2020/12/26 01:10:54;;;;;;;6.97;0.75;;;4.50;99.90;;;;;;5045563;28;36812;-76
2020/12/26 01:13:20;;;;;;;5.03;1.00;;;4.50;99.90;;;;;;5048210;28;39818;-78
2020/12/26 01:15:46;;;;;;;10.13;1.33;;;4.50;99.90;;;;;;5060804;28;39773;-77
2020/12/26 01:18:12;;;;;;;6.23;0.73;;;4.50;99.90;;;;;;5038902;28;39625;-77
2020/12/26 01:20:38;;;;;;;6.17;1.07;;;4.50;99.90;;;;;;5063282;28;37816;-77
2020/12/26 01:23:04;;;;;;;2.37;0.70;;;4.50;99.90;;;;;;5038427;28;38310;-77
2020/12/26 01:25:30;;;;;;;5.73;1.53;;;4.50;99.90;;;;;;5042232;28;38336;-77
2020/12/26 01:27:59;;;;;;;13.90;1.20;;;4.60;99.90;;;;;;5048422;28;38323;-77
2020/12/26 01:30:28;;;;;;;4.53;0.90;;;4.60;99.90;;;;;;5060613;28;38404;-77
2020/12/26 01:32:56;;;;;;;7.00;1.20;;;4.50;99.90;;;;;;5046247;28;38509;-77
2020/12/26 01:35:22;;;;;;;7.17;1.20;;;4.50;99.90;;;;;;5044275;28;37941;-77
2020/12/26 01:37:49;;;;;;;7.77;1.37;;;4.50;99.90;;;;;;5044069;28;38317;-77
2020/12/26 01:40:15;;;;;;;10.67;1.23;;;4.50;99.90;;;;;;5051883;28;36689;-77
2020/12/26 01:42:41;;;;;;;5.27;1.30;;;4.50;99.90;;;;;;5055376;28;39373;-77
2020/12/26 01:45:07;;;;;;;10.13;1.20;;;4.60;99.90;;;;;;5059375;28;39111;-77
2020/12/26 01:47:33;;;;;;;8.87;1.30;;;4.60;99.90;;;;;;5065368;28;38898;-77
2020/12/26 01:50:00;;;;;;;6.70;0.97;;;4.60;99.90;;;;;;5048623;28;38044;-77
2020/12/26 01:52:27;;;;;;;8.93;1.27;;;4.60;99.90;;;;;;5050737;28;39498;-77
2020/12/26 01:54:58;;;;;;;9.83;1.20;;;4.60;99.90;;;;;;5047692;28;40239;-77
2020/12/26 01:57:35;;;;;;;3.93;1.10;;;4.60;99.90;;;;;;5063851;28;37342;-77
2020/12/26 02:00:05;;;;;;;6.03;1.27;;;4.50;99.90;;;;;;5052040;28;37877;-77
2020/12/26 02:02:33;;;;;;;6.20;1.63;;;4.50;99.90;;;;;;5046897;28;46906;-77
2020/12/26 02:05:02;;;;;;;7.17;1.20;;;4.50;99.90;;;;;;5050829;28;38852;-77
2020/12/26 02:07:28;;;;;;;8.03;1.40;;;4.50;99.90;;;;;;5048766;28;49117;-77
2020/12/26 02:09:54;;;;;;;4.93;1.00;;;4.40;99.90;;;;;;5047268;28;36872;-77
2020/12/26 02:12:20;;;;;;;4.37;1.20;;;4.40;99.90;;;;;;5048924;28;39583;-78
2020/12/26 02:14:49;;;;;;;2.37;0.90;;;4.40;99.90;;;;;;5066065;28;37932;-77
2020/12/26 02:17:23;;;;;;;6.80;1.33;;;4.30;99.90;;;;;;5050346;28;38305;-78
2020/12/26 02:19:49;;;;;;;5.17;1.00;;;4.30;99.90;;;;;;5049826;28;37736;-77
2020/12/26 02:22:15;;;;;;;4.10;0.97;;;4.30;99.90;;;;;;5063522;28;37564;-77
2020/12/26 02:24:41;;;;;;;6.57;1.00;;;4.20;99.90;;;;;;5064087;28;38171;-77
2020/12/26 02:27:07;;;;;;;9.17;1.10;;;4.20;99.90;;;;;;5051126;28;39064;-77
2020/12/26 02:29:33;;;;;;;4.83;0.90;;;4.30;99.90;;;;;;5064256;28;36935;-77
2020/12/26 02:31:59;;;;;;;5.73;0.90;;;4.30;99.90;;;;;;5048093;28;38083;-77
2020/12/26 02:34:28;;;;;;;6.53;1.17;;;4.30;99.90;;;;;;5037193;28;39824;-77
2020/12/26 02:36:54;;;;;;;7.60;1.00;;;4.30;99.90;;;;;;5049467;28;38767;-77
2020/12/26 02:39:20;;;;;;;9.10;1.10;;;4.30;99.90;;;;;;5047992;28;36915;-77
2020/12/26 02:41:49;;;;;;;2.67;0.83;;;4.40;99.90;;;;;;5048932;28;39171;-78
2020/12/26 02:44:15;;;;;;;5.67;0.97;;;4.40;99.90;;;;;;5064006;28;38883;-77
2020/12/26 02:46:41;;;;;;;11.00;1.00;;;4.30;99.90;;;;;;5048681;28;38440;-77
2020/12/26 02:49:07;;;;;;;6.50;1.17;;;4.30;99.90;;;;;;5047111;28;36409;-77
2020/12/26 02:51:34;;;;;;;2.97;0.70;;;4.20;99.90;;;;;;5046826;28;39019;-77
2020/12/26 02:54:00;;;;;;;6.00;1.40;;;4.20;99.90;;;;;;5045211;28;37497;-77
2020/12/26 02:56:34;;;;;;;5.33;1.20;;;4.20;99.90;;;;;;5048643;28;38314;-77
2020/12/26 02:59:00;;;;;;;5.23;1.13;;;4.10;99.90;;;;;;5048301;28;37209;-77
2020/12/26 03:01:26;;;;;;;6.37;1.27;;;4.00;99.90;;;;;;5049170;28;38622;-77
2020/12/26 03:03:52;;;;;;;9.10;1.10;;;4.00;99.90;;;;;;5047835;28;38706;-77
2020/12/26 03:06:18;;;;;;;4.33;1.40;;;4.10;99.90;;;;;;5040479;28;38169;-77
2020/12/26 03:08:44;;;;;;;6.77;1.47;;;4.00;99.90;;;;;;5062203;28;36095;-77
2020/12/26 03:11:10;;;;;;;4.77;0.87;;;4.10;99.90;;;;;;5045428;28;40670;-77
2020/12/26 03:13:36;;;;;;;6.80;0.90;;;4.10;99.90;;;;;;5047703;28;39197;-77
2020/12/26 03:16:02;;;;;;;8.17;1.10;;;4.10;99.90;;;;;;5047906;28;38988;-77
2020/12/26 03:18:29;;;;;;;10.77;1.37;;;4.20;99.90;;;;;;5047373;28;36820;-76
2020/12/26 03:20:55;;;;;;;8.57;1.07;;;4.20;99.90;;;;;;5063996;28;40245;-77
2020/12/26 03:23:21;;;;;;;7.27;1.10;;;4.10;99.90;;;;;;5047812;28;39101;-77
2020/12/26 03:25:47;;;;;;;9.97;1.37;;;4.20;99.90;;;;;;5047992;28;39088;-77
2020/12/26 03:28:15;;;;;;;7.00;0.90;;;4.10;99.90;;;;;;5038609;28;36294;-77
2020/12/26 03:30:42;;;;;;;5.47;0.83;;;4.20;99.90;;;;;;5048019;28;39370;-77
2020/12/26 03:33:08;;;;;;;6.30;1.00;;;4.10;99.90;;;;;;5047408;28;39135;-77
2020/12/26 03:35:34;;;;;;;2.33;1.00;;;4.00;99.90;;;;;;5060846;28;39720;-78
2020/12/26 03:38:00;;;;;;;6.60;1.30;;;3.90;99.90;;;;;;5063286;28;39271;-78
2020/12/26 03:40:28;;;;;;;7.07;2.03;;;3.90;99.90;;;;;;5053046;28;38723;-77
2020/12/26 03:42:54;;;;;;;2.97;1.10;;;3.90;99.90;;;;;;5044639;28;38967;-77
2020/12/26 03:45:21;;;;;;;3.37;1.30;;;3.80;99.90;;;;;;5044615;28;38506;-77
2020/12/26 03:47:47;;;;;;;8.53;1.40;;;3.80;99.90;;;;;;5062672;28;38522;-77
2020/12/26 03:50:13;;;;;;;6.40;2.03;;;3.80;99.90;;;;;;5045140;28;38826;-77
2020/12/26 03:52:40;;;;;;;5.30;1.37;;;3.70;99.90;;;;;;5046349;28;37607;-77
2020/12/26 03:55:06;;;;;;;5.37;1.13;;;3.70;99.90;;;;;;5048220;28;38242;-77
2020/12/26 03:57:32;;;;;;;5.77;1.13;;;3.70;99.90;;;;;;5048280;28;20591;-77
2020/12/26 03:59:58;;;;;;;2.73;0.80;;;3.80;99.90;;;;;;5047038;28;40237;-77
2020/12/26 04:02:24;;;;;;;7.17;0.97;;;3.90;99.90;;;;;;5050437;28;37764;-77
2020/12/26 04:04:54;;;;;;;4.77;1.03;;;3.90;99.90;;;;;;5051956;28;38049;-77
2020/12/26 04:07:20;;;;;;;7.07;1.13;;;3.90;99.90;;;;;;5047185;28;37158;-77
2020/12/26 04:09:46;;;;;;;6.13;1.17;;;4.00;99.90;;;;;;5046982;28;38670;-77
2020/12/26 04:12:12;;;;;;;4.50;1.10;;;4.00;99.90;;;;;;5043030;28;38625;-77
2020/12/26 04:14:38;;;;;;;7.73;0.90;;;4.10;99.90;;;;;;5040867;28;39321;-77
2020/12/26 04:17:04;;;;;;;4.70;1.60;;;4.20;99.90;;;;;;5048748;28;37235;-77
2020/12/26 04:19:30;;;;;;;10.93;1.30;;;4.20;99.90;;;;;;5044869;28;38698;-77
2020/12/26 04:21:56;;;;;;;3.90;1.03;;;4.10;99.90;;;;;;5046493;28;38290;-77
2020/12/26 04:24:23;;;;;;;5.90;1.10;;;4.10;99.90;;;;;;5046814;28;38969;-77
2020/12/26 04:26:52;;;;;;;9.40;1.23;;;4.10;99.90;;;;;;5046771;28;37144;-77
2020/12/26 04:29:21;;;;;;;3.70;0.90;;;4.00;99.90;;;;;;5049044;28;38735;-77
2020/12/26 04:31:49;;;;;;;8.97;1.07;;;4.10;99.90;;;;;;5046102;28;39873;-77
2020/12/26 04:34:15;;;;;;;6.97;1.33;;;4.10;99.90;;;;;;5049311;28;38306;-77
2020/12/26 04:36:47;;;;;;;5.10;0.70;;;4.10;99.90;;;;;;5063585;28;36183;-78
2020/12/26 04:39:14;;;;;;;7.47;1.30;;;4.10;99.90;;;;;;5063186;28;39977;-77
2020/12/26 04:41:43;;;;;;;3.03;1.87;;;4.20;99.90;;;;;;5058139;28;39521;-77
2020/12/26 04:44:11;;;;;;;5.80;0.80;;;4.30;99.90;;;;;;5056763;28;40650;-78
2020/12/26 04:46:39;;;;;;;9.47;2.40;;;4.30;99.90;;;;;;5039918;28;37341;-77
2020/12/26 04:49:09;;;;;;;6.43;0.97;;;4.30;99.90;;;;;;5057193;28;38259;-76
2020/12/26 04:51:37;;;;;;;7.83;1.53;;;4.30;99.90;;;;;;5058070;28;38806;-77
2020/12/26 04:54:26;;;;;;;4.70;0.90;;;4.40;99.90;;;;;;5060866;28;37492;-77
2020/12/26 04:56:56;;;;;;;4.77;1.10;;;4.40;99.90;;;;;;5062405;28;36118;-77
2020/12/26 04:59:23;;;;;;;8.27;1.90;;;4.50;99.90;;;;;;5046288;28;38986;-77
2020/12/26 05:01:50;;;;;;;7.47;1.67;;;4.50;99.90;;;;;;5045059;28;39100;-77
2020/12/26 05:04:17;;;;;;;6.33;1.30;;;4.60;99.90;;;;;;5043772;28;38891;-77
2020/12/26 05:06:51;;;;;;;5.80;1.10;;;4.60;99.90;;;;;;5063241;28;38151;-77
2020/12/26 05:09:18;;;;;;;5.87;1.70;;;4.70;99.90;;;;;;5045792;28;38934;-77
2020/12/26 05:11:56;;;;;;;6.90;1.13;;;4.70;99.90;;;;;;5036554;28;37775;-77
2020/12/26 05:14:24;;;;;;;9.80;1.40;;;4.80;99.90;;;;;;5037503;28;37260;-77
2020/12/26 05:16:50;;;;;;;1.77;1.00;;;4.80;99.90;;;;;;5043829;28;37043;-77
2020/12/26 05:19:17;;;;;;;8.90;1.17;;;4.80;99.90;;;;;;5046273;28;40300;-77
2020/12/26 05:21:48;;;;;;;6.80;1.97;;;4.80;99.90;;;;;;5056293;28;38271;-77
2020/12/26 05:24:17;;;;;;;6.67;1.30;;;4.90;99.90;;;;;;5044431;28;38706;-77
2020/12/26 05:26:45;;;;;;;7.77;1.20;;;4.90;99.90;;;;;;5045230;28;37189;-77
2020/12/26 05:29:13;;;;;;;4.00;1.20;;;4.90;99.90;;;;;;5045465;28;39068;-77
2020/12/26 05:32:03;;;;;;;5.20;2.00;;;5.00;99.90;;;;;;5041776;28;40260;-77
2020/12/26 05:34:35;;;;;;;3.40;0.80;;;4.90;99.90;;;;;;5044171;28;49085;-78
2020/12/26 05:37:03;;;;;;;4.38;0.95;;;4.90;99.90;;;;;;5046376;28;37723;-77
2020/12/26 05:39:34;;;;;;;2.30;1.17;;;4.90;99.90;;;;;;5044699;28;48321;-77
2020/12/26 05:42:00;;;;;;;11.43;1.33;;;5.00;99.90;;;;;;5041920;28;39832;-77
2020/12/26 05:44:32;;;;;;;13.33;1.67;;;5.00;99.90;;;;;;5062132;28;46510;-77
2020/12/26 05:47:03;;;;;;;6.77;1.20;;;5.00;99.90;;;;;;5048364;28;37302;-77
2020/12/26 05:49:32;;;;;;;5.97;1.37;;;5.00;99.90;;;;;;5040699;28;46656;-77
2020/12/26 05:52:06;;;;;;;3.33;1.30;;;4.90;99.90;;;;;;5043529;28;38710;-77
2020/12/26 05:54:33;;;;;;;4.57;1.93;;;4.90;99.90;;;;;;5059013;28;47337;-77
2020/12/26 05:57:12;;;;;;;7.30;1.40;;;4.80;99.90;;;;;;5057615;28;39853;-78
2020/12/26 05:59:40;;;;;;;9.23;1.63;;;4.80;99.90;;;;;;5041899;28;50499;-77
2020/12/26 06:02:27;;;;;;;3.63;1.27;;;4.90;99.90;;;;;;5045877;28;39708;-78
2020/12/26 06:05:01;;;;;;;7.73;1.63;;;4.90;99.90;;;;;;5060801;28;37783;-78
2020/12/26 06:07:28;;;;;;;15.33;1.83;;;4.90;99.90;;;;;;5053892;28;36238;-78
2020/12/26 06:09:58;;;;;;;5.90;2.23;;;4.90;99.90;;;;;;5044309;28;38063;-78
2020/12/26 06:12:27;;;;;;;11.23;2.50;;;4.90;99.90;;;;;;5046978;28;40238;-77
2020/12/26 06:14:53;;;;;;;9.37;2.80;;;4.90;99.90;;;;;;5045116;28;38662;-78
2020/12/26 06:17:33;;;;;;;6.30;2.40;;;4.90;99.90;;;;;;5046126;28;37228;-78
2020/12/26 06:20:09;;;;;;;9.03;2.57;;;4.90;99.90;;;;;;5061994;28;39427;-78
2020/12/26 06:22:43;;;;;;;10.67;2.30;;;4.90;99.90;;;;;;5043740;28;48727;-78
2020/12/26 06:25:19;;;;;;;6.97;2.00;;;4.90;99.90;;;;;;5041842;28;40288;-77
2020/12/26 06:28:00;;;;;;;6.27;2.30;;;4.90;99.90;;;;;;5061586;28;36694;-79
2020/12/26 06:30:31;;;;;;;4.53;2.30;;;4.90;99.90;;;;;;5039355;28;47867;-78
2020/12/26 06:32:58;;;;;;;6.80;2.63;;;4.80;99.90;;;;;;5050577;28;38782;-79
2020/12/26 06:35:24;;;;;;;6.93;3.03;;;4.80;99.90;;;;;;5047350;28;39481;-78
2020/12/26 06:38:16;;;;;;;8.87;3.53;;;4.80;99.90;;;;;;5048273;28;37048;-79
2020/12/26 06:41:13;;;;;;;9.47;4.07;;;4.80;99.90;;;;;;5064522;28;48051;-78
2020/12/26 06:43:52;;;;;;;7.60;3.00;;;4.80;99.90;;;;;;5044684;28;47456;-78
2020/12/26 06:46:21;;;;;;;9.53;3.30;;;4.80;99.90;;;;;;5062618;28;39918;-78
2020/12/26 06:48:55;;;;;;;10.67;4.30;;;4.80;99.90;;;;;;5048666;28;36364;-78
2020/12/26 06:51:25;;;;;;;6.93;3.20;;;4.80;99.90;;;;;;5042536;28;37897;-79
2020/12/26 06:53:53;;;;;;;7.77;3.47;;;4.80;99.90;;;;;;5040433;28;38844;-78
2020/12/26 06:56:34;;;;;;;8.47;3.30;;;4.80;99.90;;;;;;5048077;28;38408;-78
2020/12/26 06:59:14;;;;;;;14.63;3.63;;;4.80;99.90;;;;;;5039362;28;37425;-78
2020/12/26 07:01:42;;;;;;;5.83;3.27;;;4.90;99.90;;;;;;5060564;28;47799;-78
2020/12/26 07:04:13;;;;;;;10.67;3.83;;;4.90;99.90;;;;;;5064397;28;41650;-77
2020/12/26 07:06:41;;;;;;;6.00;2.93;;;4.80;99.90;;;;;;5047635;28;39223;-78
2020/12/26 07:09:08;;;;;;;7.60;3.60;;;4.80;99.90;;;;;;5049456;28;37998;-78
2020/12/26 07:11:54;;;;;;;9.53;3.20;;;4.90;99.90;;;;;;5046792;28;38140;-78
2020/12/26 07:14:33;;;;;;;10.77;3.10;;;4.90;99.90;;;;;;5048565;28;39015;-78
2020/12/26 07:17:00;;;;;;;6.30;3.33;;;4.90;99.90;;;;;;5043354;28;39056;-80
2020/12/26 07:19:28;;;;;;;9.67;3.10;;;4.90;99.90;;;;;;5062564;28;35950;-78
2020/12/26 07:22:04;;;;;;;7.90;3.33;;;5.00;99.90;;;;;;5049859;28;38239;-79
2020/12/26 07:24:38;;;;;;;11.73;3.43;;;5.00;99.90;;;;;;5038911;28;48457;-77
2020/12/26 07:27:14;;;;;;;7.53;3.17;;;4.90;99.90;;;;;;5042123;28;38916;-77
2020/12/26 07:30:10;;;;;;;13.43;3.27;;;4.90;99.90;;;;;;5051086;28;38585;-77
2020/12/26 07:32:36;;;;;;;8.87;3.00;;;4.80;99.90;;;;;;5057902;28;47566;-78
2020/12/26 07:35:13;;;;;;;11.87;2.77;;;4.80;99.90;;;;;;5063799;28;39295;-78
2020/12/26 07:37:46;;;;;;;10.20;3.33;;;4.80;99.90;;;;;;5064684;28;47414;-77
2020/12/26 07:40:16;;;;;;;;;;;4.80;99.90;;;;;;5064832;28;37397;-78
2020/12/26 07:42:44;;;;;;;7.77;3.07;;;4.90;99.90;;;;;;5064842;28;40640;-77
2020/12/26 07:45:24;;;;;;;11.90;3.80;;;4.90;99.90;;;;;;5045639;28;41848;-78
2020/12/26 07:47:52;;;;;;;13.80;4.50;;;4.90;99.90;;;;;;5033028;28;37753;-77
2020/12/26 07:50:20;;;;;;;7.20;3.50;;;4.90;99.90;;;;;;5041245;28;36148;-76
2020/12/26 07:53:04;;;;;;;10.00;3.87;;;4.90;99.90;;;;;;5050180;28;39527;-78
2020/12/26 07:55:30;;;;;;;9.27;3.90;;;5.00;99.90;;;;;;5053086;28;48762;-78
2020/12/26 07:58:13;;;;;;;10.77;4.30;;;5.00;99.90;;;;;;5044993;28;38383;-78
2020/12/26 08:00:41;;;;;;;9.40;4.25;;;5.00;99.90;;;;;;5058090;28;48144;-76
2020/12/26 08:03:09;;;;;;;13.37;4.47;;;5.00;99.90;;;;;;5043185;28;39852;-77
2020/12/26 08:05:37;;;;;;;11.87;4.07;;;5.10;99.90;;;;;;5061362;28;37663;-77
2020/12/26 08:08:14;;;;;;;17.00;4.60;;;5.10;99.90;;;;;;5062564;28;38178;-77
2020/12/26 08:10:40;;;;;;;10.07;3.43;;;5.10;99.90;;;;;;5043406;28;36158;-77
2020/12/26 08:13:13;;;;;;;9.87;2.97;;;5.20;99.90;;;;;;5045503;28;38156;-77
2020/12/26 08:15:39;;;;;;;9.43;2.85;;;5.20;99.90;;;;;;5061089;28;39417;-77
2020/12/26 08:18:06;;;;;;;8.80;2.83;;;5.20;99.90;;;;;;5040253;28;39977;-78
2020/12/26 08:20:34;;;;;;;11.93;3.17;;;5.20;99.90;;;;;;5051162;28;36960;-78
2020/12/26 08:23:01;;;;;;;5.77;2.93;;;5.20;99.90;;;;;;5044603;28;38204;-77
2020/12/26 08:25:29;;;;;;;10.97;3.30;;;5.20;99.90;;;;;;5052753;28;48775;-77
2020/12/26 08:27:55;;;;;;;9.57;3.03;;;5.20;99.90;;;;;;5052284;28;38358;-77
2020/12/26 08:30:35;;;;;;;9.70;2.87;;;5.20;99.90;;;;;;5044274;28;37321;-77
2020/12/26 08:33:24;;;;;;;8.70;3.43;;;5.20;99.90;;;;;;5067034;28;38306;-78
2020/12/26 08:36:21;;;;;;;10.63;3.63;;;5.20;99.90;;;;;;5044046;28;48525;-77
2020/12/26 08:39:01;;;;;;;5.87;3.40;;;5.10;99.90;;;;;;5044823;28;48413;-77
2020/12/26 08:41:29;;;;;;;10.80;3.57;;;5.00;99.90;;;;;;5058673;28;46536;-77
2020/12/26 08:43:56;;;;;;;7.57;3.20;;;4.90;99.90;;;;;;5043264;28;37993;-77
2020/12/26 08:46:25;;;;;;;11.67;3.20;;;4.90;99.90;;;;;;5052574;28;38739;-77
2020/12/26 08:48:57;;;;;;;7.10;3.70;;;4.90;99.90;;;;;;5042932;28;38149;-78
2020/12/26 08:51:29;;;;;;;5.50;2.75;;;4.90;99.90;;;;;;5061575;28;36001;-77
2020/12/26 08:53:59;;;;;;;9.95;2.65;;;4.90;99.90;;;;;;5048093;28;38893;-78
2020/12/26 08:56:32;;;;;;;5.90;2.67;;;4.90;99.90;;;;;;5042043;28;40852;-78
2020/12/26 08:58:58;;;;;;;10.40;3.47;;;4.90;99.90;;;;;;5044303;28;38817;-77
2020/12/26 09:01:24;;;;;;;11.40;2.50;;;4.90;99.90;;;;;;5045739;28;37809;-77
2020/12/26 09:03:51;;;;;;;7.00;2.63;;;5.00;99.90;;;;;;5038920;28;38217;-77
2020/12/26 09:06:30;;;;;;;5.67;2.40;;;5.00;99.90;;;;;;5045211;28;39614;-76
2020/12/26 09:08:56;;;;;;;8.87;3.00;;;5.00;99.90;;;;;;5059848;28;38299;-76
2020/12/26 09:11:31;;;;;;;5.40;2.23;;;5.00;99.90;;;;;;5062101;28;35986;-77
2020/12/26 09:13:57;;;;;;;12.37;2.10;;;5.00;99.90;;;;;;5048349;28;39703;-77
2020/12/26 09:16:27;;;;;;;6.30;2.00;;;4.90;99.90;;;;;;5041905;28;39062;-76
2020/12/26 09:18:53;;;;;;;8.43;2.13;;;4.90;99.90;;;;;;5058884;28;38883;-77
2020/12/26 09:21:23;;;;;;;6.67;2.97;;;4.90;99.90;;;;;;5044460;28;36017;-77
2020/12/26 09:23:51;;;;;;;8.10;2.17;;;4.90;99.90;;;;;;5042295;28;39518;-77
2020/12/26 09:26:22;;;;;;;9.77;2.37;;;4.90;99.90;;;;;;5043012;28;38720;-77
2020/12/26 09:28:58;;;;;;;7.77;1.80;;;4.90;99.90;;;;;;5048474;28;38940;-77
2020/12/26 09:31:35;;;;;;;4.70;2.00;;;4.90;99.90;;;;;;5044727;28;36941;-77
2020/12/26 09:34:14;;;;;;;5.17;2.00;;;4.90;99.90;;;;;;5044167;28;39429;-77
2020/12/26 09:36:41;;;;;;;7.17;2.33;;;4.90;99.90;;;;;;5043859;28;46993;-77
2020/12/26 09:39:07;;;;;;;8.83;2.73;;;4.90;99.90;;;;;;5044737;28;39147;-77
2020/12/26 09:41:43;;;;;;;8.87;2.00;;;4.90;99.90;;;;;;5040688;28;36441;-77
2020/12/26 09:44:10;;;;;;;8.13;2.10;;;4.90;99.90;;;;;;5045613;28;40121;-76
2020/12/26 09:46:37;;;;;;;3.97;2.43;;;4.90;99.90;;;;;;5048274;28;38572;-77
2020/12/26 09:49:03;;;;;;;6.40;2.40;;;5.00;99.90;;;;;;5056425;28;40479;-77
2020/12/26 09:51:30;;;;;;;7.23;2.50;;;5.00;99.90;;;;;;5055182;28;37254;-78
2020/12/26 09:53:56;;;;;;;10.43;2.90;;;5.00;99.90;;;;;;5042448;28;39826;-77
2020/12/26 09:56:22;;;;;;;6.27;2.50;;;5.10;99.90;;;;;;5038625;28;37729;-78
2020/12/26 09:58:48;;;;;;;10.63;2.43;;;5.10;99.90;;;;;;5049707;28;39322;-77
2020/12/26 10:01:16;;;;;;;9.60;2.63;;;5.10;99.90;;;;;;5036564;28;37906;-77
2020/12/26 10:03:43;;;;;;;5.70;2.33;;;5.20;99.90;;;;;;5039106;28;38624;-78
2020/12/26 10:06:17;;;;;;;8.70;2.40;;;5.10;99.90;;;;;;5062613;28;41689;-77
2020/12/26 10:08:44;;;;;;;6.97;2.43;;;5.10;99.90;;;;;;5049040;28;38423;-77
2020/12/26 10:11:14;;;;;;;7.67;2.33;;;5.10;99.90;;;;;;5035878;28;36970;-75
2020/12/26 10:13:42;;;;;;;7.80;2.60;;;5.20;99.90;;;;;;5051893;28;38422;-76
2020/12/26 10:16:09;;;;;;;5.40;2.20;;;5.20;99.90;;;;;;5041602;28;40107;-77
2020/12/26 10:18:36;;;;;;;6.70;2.20;;;5.20;99.90;;;;;;5067289;28;37839;-77
2020/12/26 10:21:02;;;;;;;9.47;2.83;;;5.20;99.90;;;;;;5053398;28;37105;-80
2020/12/26 10:23:29;;;;;;;8.60;2.80;;;5.20;99.90;;;;;;5042485;28;38308;-77
2020/12/26 10:26:02;;;;;;;8.07;2.33;;;5.30;99.90;;;;;;5044786;28;38893;-79
2020/12/26 10:28:28;;;;;;;8.53;2.23;;;5.40;99.90;;;;;;5064474;28;49172;-77
2020/12/26 10:30:56;;;;;;;5.83;2.50;;;5.40;99.90;;;;;;5052129;28;36679;-78
2020/12/26 10:33:22;;;;;;;8.83;3.83;;;5.50;99.90;;;;;;5047959;28;38750;-77
2020/12/26 10:35:48;;;;;;;6.93;2.60;;;5.50;99.90;;;;;;5067536;28;39363;-79
2020/12/26 10:38:15;;;;;;;9.60;3.00;;;5.60;99.90;;;;;;5049199;28;37773;-80
2020/12/26 10:40:41;;;;;;;5.23;2.60;;;5.60;99.90;;;;;;5049251;28;36301;-79
2020/12/26 10:43:10;;;;;;;8.97;2.80;;;5.60;99.90;;;;;;5043417;28;38626;-78
2020/12/26 10:45:38;;;;;;;6.50;2.77;;;5.70;99.90;;;;;;5047012;28;38748;-79
2020/12/26 10:48:07;;;;;;;8.70;2.87;;;5.60;99.90;;;;;;5048463;28;40001;-78
2020/12/26 10:50:33;;;;;;;5.67;2.73;;;5.60;99.90;;;;;;5052508;28;37739;-79
2020/12/26 10:52:59;;;;;;;5.90;2.70;;;5.60;99.90;;;;;;5048661;28;38790;-80
2020/12/26 10:55:25;;;;;;;7.90;2.63;;;5.60;99.90;;;;;;5049820;28;37916;-80
2020/12/26 10:57:54;;;;;;;8.60;2.90;;;5.60;99.90;;;;;;5047037;28;38338;-80
2020/12/26 11:00:21;;;;;;;9.80;2.77;;;5.70;99.90;;;;;;5045804;28;37991;-79
2020/12/26 11:02:47;;;;;;;5.17;2.93;;;5.70;99.90;;;;;;5066069;28;38814;-79
2020/12/26 11:05:13;;;;;;;6.83;2.83;;;5.80;99.90;;;;;;5050196;28;38140;-80
2020/12/26 11:07:41;;;;;;;6.67;2.97;;;5.70;99.90;;;;;;5063502;28;37281;-79
2020/12/26 11:10:07;;;;;;;7.00;2.70;;;5.80;99.90;;;;;;5059359;28;36140;-80
2020/12/26 11:12:33;;;;;;;6.70;2.90;;;5.80;99.90;;;;;;5055590;28;37499;-80
2020/12/26 11:14:59;;;;;;;7.90;3.10;;;5.70;99.90;;;;;;5045084;28;37942;-79
2020/12/26 11:17:25;;;;;;;4.23;2.50;;;5.70;99.90;;;;;;5067643;28;40787;-78
2020/12/26 11:19:52;;;;;;;9.53;3.13;;;5.70;99.90;;;;;;5056345;28;36759;-80
2020/12/26 11:22:18;;;;;;;11.83;2.80;;;5.70;99.90;;;;;;5054463;28;40666;-79
2020/12/26 11:24:45;;;;;;;8.67;2.90;;;5.80;99.90;;;;;;5064448;28;39661;-81
2020/12/26 11:27:11;;;;;;;4.07;2.80;;;5.90;99.90;;;;;;5044661;28;38364;-78
2020/12/26 11:29:37;;;;;;;6.33;2.70;;;6.00;99.90;;;;;;5050712;28;38831;-77
2020/12/26 11:32:04;;;;;;;8.07;2.43;;;5.90;99.90;;;;;;5044662;28;38239;-79
2020/12/26 11:34:30;;;;;;;12.70;3.30;;;5.90;99.90;;;;;;5046719;28;39073;-80
2020/12/26 11:36:56;;;;;;;6.67;2.67;;;5.90;99.90;;;;;;5063520;28;38260;-79
2020/12/26 11:39:22;;;;;;;9.27;2.80;;;5.80;99.90;;;;;;5064875;28;36271;-78
2020/12/26 11:41:48;;;;;;;10.77;3.03;;;5.80;99.90;;;;;;5051559;28;38952;-76
2020/12/26 11:44:14;;;;;;;7.53;2.70;;;5.80;99.90;;;;;;5062884;28;38454;-80
2020/12/26 11:46:41;;;;;;;7.07;2.80;;;5.80;99.90;;;;;;5039630;28;39841;-78
2020/12/26 11:49:07;;;;;;;8.00;2.67;;;5.90;99.90;;;;;;5052073;28;38422;-79
2020/12/26 11:51:33;;;;;;;5.63;2.20;;;5.90;99.90;;;;;;5052439;28;37758;-79
2020/12/26 11:53:59;;;;;;;5.80;2.50;;;5.90;99.90;;;;;;5063479;28;39268;-78
2020/12/26 11:56:26;;;;;;;11.07;2.60;;;5.90;99.90;;;;;;5047419;28;38269;-79
2020/12/26 11:58:52;;;;;;;6.20;2.50;;;6.00;99.90;;;;;;5064451;28;38658;-79
2020/12/26 12:01:18;;;;;;;6.07;3.00;;;6.00;99.90;;;;;;5074322;28;37330;-79
2020/12/26 12:03:45;;;;;;;7.70;3.10;;;6.00;99.90;;;;;;5065362;28;37801;-79
2020/12/26 12:06:13;;;;;;;11.80;2.87;;;6.00;99.90;;;;;;5054458;28;37688;-79
2020/12/26 12:08:46;;;;;;;7.23;3.33;;;6.00;99.90;;;;;;5051216;28;38131;-80
2020/12/26 12:11:16;;;;;;;8.60;4.77;;;6.00;99.90;;;;;;5053215;28;39474;-78
2020/12/26 12:13:43;;;;;;;7.50;3.80;;;6.00;99.90;;;;;;5047520;28;41289;-78
2020/12/26 12:16:13;;;;;;;6.73;3.00;;;5.90;99.90;;;;;;5044340;28;41167;-78
2020/12/26 12:18:39;;;;;;;7.90;3.17;;;6.00;99.90;;;;;;5057243;28;38268;-80
2020/12/26 12:21:06;;;;;;;8.50;2.97;;;6.00;99.90;;;;;;5058933;28;38289;-79
2020/12/26 12:23:32;;;;;;;8.07;3.50;;;6.00;99.90;;;;;;5041309;28;39283;-79
2020/12/26 12:25:58;;;;;;;7.43;3.20;;;6.00;99.90;;;;;;5062727;28;37997;-80
2020/12/26 12:28:25;;;;;;;8.67;3.87;;;6.00;99.90;;;;;;5050969;28;38196;-80
2020/12/26 12:30:56;;;;;;;9.03;3.17;;;6.00;99.90;;;;;;5074454;28;39981;-82
2020/12/26 12:33:27;;;;;;;6.60;3.07;;;6.00;99.90;;;;;;5069682;28;38293;-78
2020/12/26 12:35:53;;;;;;;9.90;3.60;;;6.10;99.90;;;;;;5073882;28;39714;-77
2020/12/26 12:38:19;;;;;;;14.50;3.67;;;6.10;99.90;;;;;;5040422;28;38461;-78
2020/12/26 12:40:47;;;;;;;11.00;3.23;;;6.20;99.90;;;;;;5069964;28;39294;-79
2020/12/26 12:43:14;;;;;;;7.87;2.77;;;6.20;99.90;;;;;;5046912;28;38826;-79
2020/12/26 12:45:40;;;;;;;8.13;2.47;;;6.20;99.90;;;;;;5062882;28;38679;-78
2020/12/26 12:48:06;;;;;;;9.70;3.70;;;6.20;99.90;;;;;;5057347;28;36757;-78
2020/12/26 12:50:35;;;;;;;7.70;3.40;;;6.20;99.90;;;;;;5064391;28;40514;-79
2020/12/26 12:53:01;;;;;;;12.53;3.77;;;6.20;99.90;;;;;;5045069;28;39789;-76
2020/12/26 12:55:27;;;;;;;6.60;3.47;;;6.20;99.90;;;;;;5046211;28;38505;-78
2020/12/26 12:57:54;;;;;;;8.53;3.50;;;6.20;99.90;;;;;;5060419;28;37342;-79
2020/12/26 13:00:23;;;;;;;7.43;3.60;;;6.20;99.90;;;;;;5046213;28;38693;-80
2020/12/26 13:02:49;;;;;;;11.37;3.73;;;6.20;99.90;;;;;;5035036;28;38571;-77
2020/12/26 13:05:15;;;;;;;5.50;3.40;;;6.20;99.90;;;;;;5062463;28;39697;-77